Time;durP1;ratioP1;P1;durP2;ratioP2;P2;SDS_P1;SDS_P2;PMS_P1;PMS_P2;Temp;Humidity;BMP_temperature;BMP_pressure;BME280_temperature;BME280_humidity;BME280_pressure;Samples;Min_cycle;Max_cycle;Signal;HPM_P1;HPM_P2
2021/10/09 00:00:26;;;;;;;24.05;17.38;;;9.70;90.10;;;;;;5071807;28;20281;-63
2021/10/09 00:02:53;;;;;;;23.55;17.17;;;9.80;90.30;;;;;;5072032;28;20276;-63
2021/10/09 00:05:20;;;;;;;29.55;20.02;;;9.80;90.90;;;;;;5070988;28;20621;-64
2021/10/09 00:07:47;;;;;;;31.77;19.70;;;9.90;91.30;;;;;;5071939;28;20260;-64
2021/10/09 00:10:24;;;;;;;25.83;19.50;;;9.90;91.80;;;;;;5071547;28;20623;-64
2021/10/09 00:12:51;;;;;;;28.20;20.55;;;10.10;91.50;;;;;;5071639;28;20246;-65
2021/10/09 00:15:19;;;;;;;23.30;18.75;;;10.10;91.50;;;;;;5071643;28;20289;-63
2021/10/09 00:17:50;;;;;;;24.60;17.75;;;10.10;91.70;;;;;;5071813;28;20272;-64
2021/10/09 00:20:17;;;;;;;25.13;19.65;;;10.20;91.60;;;;;;5071759;28;20280;-64
2021/10/09 00:22:44;;;;;;;24.95;18.60;;;10.30;91.60;;;;;;5071557;28;20225;-63
2021/10/09 00:25:12;;;;;;;24.65;19.00;;;10.30;91.40;;;;;;5071429;28;20667;-64
2021/10/09 00:27:41;;;;;;;23.75;17.00;;;10.40;91.40;;;;;;5071648;28;20722;-64
2021/10/09 00:30:08;;;;;;;24.08;18.33;;;10.40;91.40;;;;;;5069376;28;20221;-66
2021/10/09 00:32:35;;;;;;;22.42;17.33;;;10.50;91.20;;;;;;5071601;28;20193;-63
2021/10/09 00:35:02;;;;;;;26.48;17.10;;;10.50;91.20;;;;;;5071396;28;20221;-64
2021/10/09 00:37:34;;;;;;;29.55;18.33;;;10.50;91.00;;;;;;5071672;28;20275;-64
2021/10/09 00:40:01;;;;;;;22.90;17.35;;;10.60;90.90;;;;;;5070586;28;20210;-64
2021/10/09 00:42:28;;;;;;;27.17;18.60;;;10.60;90.60;;;;;;5070879;28;20600;-64
2021/10/09 00:44:58;;;;;;;23.48;18.17;;;10.60;90.60;;;;;;5072696;28;20221;-64
2021/10/09 00:47:26;;;;;;;22.08;16.30;;;10.60;90.60;;;;;;5072518;28;20193;-64
2021/10/09 00:49:53;;;;;;;24.90;18.48;;;10.60;90.50;;;;;;5072857;28;20704;-64
2021/10/09 00:52:26;;;;;;;34.78;19.40;;;10.50;90.70;;;;;;5071992;28;20632;-64
2021/10/09 00:54:56;;;;;;;24.27;17.05;;;10.50;90.70;;;;;;5072127;28;20228;-64
2021/10/09 00:57:23;;;;;;;23.35;17.13;;;10.50;90.80;;;;;;5072304;28;20185;-64
2021/10/09 00:59:52;;;;;;;26.55;17.58;;;10.50;90.60;;;;;;5072781;28;20312;-64
2021/10/09 01:02:20;;;;;;;22.25;17.75;;;10.40;90.80;;;;;;5071889;28;20221;-64
2021/10/09 01:04:48;;;;;;;21.80;16.67;;;10.50;91.00;;;;;;5072539;28;20268;-64
2021/10/09 01:07:15;;;;;;;24.20;18.02;;;10.50;90.90;;;;;;5071921;28;20555;-64
2021/10/09 01:09:45;;;;;;;23.27;17.75;;;10.50;91.00;;;;;;5072584;28;20273;-64
2021/10/09 01:12:13;;;;;;;24.70;18.67;;;10.50;90.90;;;;;;5072343;28;20192;-64
2021/10/09 01:14:41;;;;;;;31.38;18.65;;;10.60;90.80;;;;;;5072724;28;20197;-64
2021/10/09 01:17:11;;;;;;;21.13;16.23;;;10.50;90.70;;;;;;5072390;28;20304;-63
2021/10/09 01:19:45;;;;;;;31.35;18.48;;;10.50;90.70;;;;;;5072812;28;20566;-63
2021/10/09 01:22:14;;;;;;;23.17;18.17;;;10.50;90.90;;;;;;5072337;28;20272;-64
2021/10/09 01:24:41;;;;;;;23.77;17.52;;;10.50;90.70;;;;;;5072757;28;20284;-64
2021/10/09 01:27:09;;;;;;;22.38;17.05;;;10.60;90.50;;;;;;5072400;28;20266;-64
2021/10/09 01:29:36;;;;;;;21.88;16.35;;;10.60;90.30;;;;;;5072183;28;20285;-64
2021/10/09 01:32:03;;;;;;;23.98;18.10;;;10.50;90.40;;;;;;5072161;28;20576;-64
2021/10/09 01:34:31;;;;;;;22.85;16.25;;;10.40;90.50;;;;;;5072446;28;20732;-64
2021/10/09 01:36:58;;;;;;;21.50;16.15;;;10.50;90.40;;;;;;5072212;28;20185;-64
2021/10/09 01:39:26;;;;;;;22.23;16.25;;;10.40;90.50;;;;;;5072366;28;20308;-64
2021/10/09 01:41:54;;;;;;;20.08;15.45;;;10.40;90.50;;;;;;5071760;28;20273;-63
2021/10/09 01:44:22;;;;;;;22.90;16.75;;;10.40;90.50;;;;;;5072063;28;20548;-65
2021/10/09 01:46:49;;;;;;;21.75;16.88;;;10.40;90.50;;;;;;5070538;28;20572;-64
2021/10/09 01:49:16;;;;;;;23.88;17.73;;;10.40;90.30;;;;;;5072251;28;20640;-64
2021/10/09 01:51:43;;;;;;;27.00;17.77;;;10.30;90.40;;;;;;5071856;28;20274;-64
2021/10/09 01:54:10;;;;;;;19.75;15.65;;;10.40;90.50;;;;;;5072170;28;20665;-64
2021/10/09 01:56:39;;;;;;;22.45;17.13;;;10.30;90.30;;;;;;5072043;28;20282;-64
2021/10/09 01:59:11;;;;;;;19.45;14.70;;;10.20;90.50;;;;;;5072301;28;20218;-64
2021/10/09 02:01:38;;;;;;;22.10;16.80;;;10.20;90.60;;;;;;5071944;28;20288;-64
2021/10/09 02:04:06;;;;;;;20.45;15.48;;;10.10;90.70;;;;;;5072122;28;20716;-64
2021/10/09 02:06:33;;;;;;;25.48;17.70;;;10.20;90.70;;;;;;5071968;28;20194;-64
2021/10/09 02:09:02;;;;;;;20.38;16.20;;;10.20;90.60;;;;;;5075400;28;20261;-64
2021/10/09 02:11:37;;;;;;;21.80;15.52;;;10.20;90.80;;;;;;5075703;28;20251;-64
2021/10/09 02:14:21;;;;;;;21.42;15.73;;;10.10;90.50;;;;;;5075066;28;20618;-64
2021/10/09 02:17:13;;;;;;;24.00;16.77;;;10.10;90.70;;;;;;5075774;28;20225;-64
2021/10/09 02:25:35;;;;;;;18.67;14.20;;;10.10;90.90;;;;;;5033138;28;20194;-63
2021/10/09 02:28:03;;;;;;;24.35;18.02;;;10.20;90.80;;;;;;5032723;28;20189;-64
2021/10/09 02:30:34;;;;;;;21.60;16.15;;;10.20;90.50;;;;;;5053647;28;20221;-64
2021/10/09 02:33:06;;;;;;;22.40;15.93;;;10.10;90.90;;;;;;5074953;28;20268;-64
2021/10/09 02:35:34;;;;;;;21.98;15.93;;;10.10;90.90;;;;;;5075621;28;20289;-63
2021/10/09 02:38:03;;;;;;;20.33;16.20;;;10.10;90.70;;;;;;5073062;28;20272;-64
2021/10/09 02:40:30;;;;;;;21.52;16.13;;;10.10;90.70;;;;;;5074972;28;20676;-64
2021/10/09 02:42:57;;;;;;;21.45;15.75;;;10.20;90.70;;;;;;5074926;28;20236;-64
2021/10/09 02:45:26;;;;;;;23.02;16.98;;;10.10;90.50;;;;;;5075027;28;20285;-64
2021/10/09 02:47:57;;;;;;;20.65;16.95;;;10.20;90.50;;;;;;5075221;28;20185;-64
2021/10/09 02:50:24;;;;;;;20.92;16.17;;;10.20;90.60;;;;;;5075007;28;20193;-63
2021/10/09 02:52:52;;;;;;;24.58;17.20;;;10.20;90.70;;;;;;5075071;28;20217;-64
2021/10/09 02:55:19;;;;;;;24.27;16.35;;;10.20;91.00;;;;;;5073240;28;20221;-65
2021/10/09 02:57:46;;;;;;;23.10;17.48;;;10.20;90.60;;;;;;5074647;28;20185;-64
2021/10/09 03:00:15;;;;;;;19.85;15.73;;;10.30;90.50;;;;;;5074369;28;20256;-64
2021/10/09 03:02:47;;;;;;;24.65;17.15;;;10.30;90.40;;;;;;5074689;28;20276;-64
2021/10/09 03:05:18;;;;;;;26.08;18.52;;;10.30;90.40;;;;;;5074441;28;20274;-64
2021/10/09 03:07:50;;;;;;;21.75;16.05;;;10.30;90.40;;;;;;5074555;28;20224;-64
2021/10/09 03:10:23;;;;;;;19.75;14.27;;;10.40;90.30;;;;;;5074316;28;20281;-64
2021/10/09 03:12:50;;;;;;;18.40;16.08;;;10.30;90.20;;;;;;5074828;28;20691;-63
2021/10/09 03:15:17;;;;;;;20.75;16.02;;;10.30;90.20;;;;;;5074445;28;20583;-64
2021/10/09 03:17:44;;;;;;;18.40;15.77;;;10.20;90.20;;;;;;5074443;28;20190;-64
2021/10/09 03:20:12;;;;;;;24.08;16.30;;;10.20;90.50;;;;;;5073719;28;20630;-64
2021/10/09 03:22:42;;;;;;;20.35;14.95;;;10.20;90.60;;;;;;5074791;28;20705;-65
2021/10/09 03:25:09;;;;;;;19.00;15.20;;;10.20;90.60;;;;;;5074122;28;20197;-65
2021/10/09 03:27:37;;;;;;;18.30;13.50;;;10.20;90.60;;;;;;5074571;28;20225;-63
2021/10/09 03:30:05;;;;;;;21.30;15.25;;;10.30;90.60;;;;;;5073841;28;20221;-64
2021/10/09 03:32:32;;;;;;;21.48;14.45;;;10.20;90.50;;;;;;5073376;28;20732;-63
2021/10/09 03:34:59;;;;;;;22.38;15.75;;;10.30;90.40;;;;;;5073888;28;20984;-64
2021/10/09 03:37:26;;;;;;;24.95;15.38;;;10.30;90.20;;;;;;5073984;28;20647;-64
2021/10/09 03:40:02;;;;;;;18.88;14.50;;;10.30;90.00;;;;;;5073592;28;20225;-65
2021/10/09 03:42:33;;;;;;;20.50;14.88;;;10.30;90.00;;;;;;5054355;28;20663;-64
2021/10/09 03:45:05;;;;;;;20.40;14.98;;;10.30;90.00;;;;;;5053780;28;20190;-65
2021/10/09 03:47:48;;;;;;;17.73;14.57;;;10.30;90.00;;;;;;5073850;28;20714;-64
2021/10/09 03:50:33;;;;;;;22.73;16.08;;;10.30;90.10;;;;;;5073184;28;20202;-64
2021/10/09 03:53:04;;;;;;;20.10;14.65;;;10.30;90.00;;;;;;5074201;28;20193;-63
2021/10/09 03:55:33;;;;;;;17.17;14.77;;;10.30;89.60;;;;;;5073047;28;20174;-64
2021/10/09 03:58:00;;;;;;;20.27;15.25;;;10.30;89.90;;;;;;5073950;28;20610;-64
2021/10/09 04:00:27;;;;;;;20.08;14.77;;;10.20;90.00;;;;;;5073245;28;20229;-64
2021/10/09 04:02:54;;;;;;;21.85;14.73;;;10.20;90.10;;;;;;5074180;28;20228;-64
2021/10/09 04:05:21;;;;;;;23.58;16.73;;;10.20;90.10;;;;;;5073289;28;20221;-65
2021/10/09 04:07:49;;;;;;;24.88;17.80;;;10.20;90.30;;;;;;5073551;28;20263;-64
2021/10/09 04:10:18;;;;;;;19.30;14.73;;;10.20;90.60;;;;;;5074017;28;20272;-65
2021/10/09 04:12:46;;;;;;;23.92;16.23;;;10.20;90.50;;;;;;5073527;28;20277;-64
2021/10/09 04:15:13;;;;;;;20.73;15.32;;;10.20;90.40;;;;;;5073030;28;20213;-64
2021/10/09 04:17:45;;;;;;;18.80;14.75;;;10.20;90.50;;;;;;5073729;28;20581;-64
2021/10/09 04:20:14;;;;;;;21.85;14.20;;;10.20;90.50;;;;;;5072797;28;20213;-64
2021/10/09 04:22:41;;;;;;;22.33;14.27;;;10.20;90.50;;;;;;5073938;28;20276;-64
2021/10/09 04:25:09;;;;;;;21.05;16.23;;;10.20;90.60;;;;;;5073014;28;20204;-63
2021/10/09 04:27:37;;;;;;;22.77;15.20;;;10.20;90.30;;;;;;5073656;28;20228;-64
2021/10/09 04:30:06;;;;;;;20.75;15.00;;;10.20;90.30;;;;;;5072264;28;20224;-64
2021/10/09 04:32:34;;;;;;;22.30;14.23;;;10.20;90.30;;;;;;5073407;28;20200;-64
2021/10/09 04:35:01;;;;;;;22.40;15.35;;;10.20;90.30;;;;;;5073057;28;20214;-65
2021/10/09 04:37:30;;;;;;;19.20;15.10;;;10.20;90.10;;;;;;5073131;28;20683;-64
2021/10/09 04:39:57;;;;;;;23.55;16.73;;;10.20;90.30;;;;;;5071065;28;20583;-65
2021/10/09 04:42:24;;;;;;;18.27;14.25;;;10.20;90.50;;;;;;5071799;28;20193;-64
2021/10/09 04:44:52;;;;;;;21.27;14.68;;;10.20;90.50;;;;;;5072858;28;20284;-64
2021/10/09 04:47:20;;;;;;;22.92;12.95;;;10.10;90.20;;;;;;5072863;28;20247;-65
2021/10/09 04:49:52;;;;;;;18.65;13.63;;;10.10;90.40;;;;;;5072974;28;20624;-64
2021/10/09 04:52:19;;;;;;;21.58;14.95;;;10.10;90.40;;;;;;5072789;28;20228;-64
2021/10/09 04:54:46;;;;;;;19.70;14.95;;;10.10;90.30;;;;;;5073079;28;20280;-64
2021/10/09 04:57:13;;;;;;;20.80;14.90;;;10.10;90.20;;;;;;5070943;28;20273;-64
2021/10/09 04:59:40;;;;;;;16.95;13.68;;;10.20;90.20;;;;;;5073074;28;20626;-65
2021/10/09 05:02:07;;;;;;;18.05;14.57;;;10.20;90.10;;;;;;5071991;28;20272;-64
2021/10/09 05:04:35;;;;;;;23.77;16.00;;;10.20;90.20;;;;;;5072949;28;20284;-64
2021/10/09 05:07:02;;;;;;;20.77;15.52;;;10.20;90.10;;;;;;5072353;28;20264;-64
2021/10/09 05:09:29;;;;;;;19.73;15.15;;;10.20;90.00;;;;;;5072903;28;20716;-64
2021/10/09 05:11:56;;;;;;;25.17;15.30;;;10.30;90.00;;;;;;5071362;28;20272;-64
2021/10/09 05:14:28;;;;;;;20.65;15.18;;;10.30;89.60;;;;;;5072207;28;20269;-64
2021/10/09 05:16:55;;;;;;;22.08;13.27;;;10.20;90.10;;;;;;5073020;28;20293;-64
2021/10/09 05:19:22;;;;;;;20.33;14.73;;;10.20;89.10;;;;;;5072469;28;20182;-64
2021/10/09 05:21:50;;;;;;;20.63;14.32;;;10.20;89.40;;;;;;5072721;28;20281;-64
2021/10/09 05:24:17;;;;;;;23.80;14.23;;;10.20;89.40;;;;;;5071875;28;20215;-64
2021/10/09 05:26:48;;;;;;;18.95;12.57;;;10.10;89.30;;;;;;5072830;28;20280;-64
2021/10/09 05:29:16;;;;;;;17.77;12.98;;;10.10;89.70;;;;;;5072047;28;20233;-64
2021/10/09 05:31:46;;;;;;;30.73;15.63;;;10.10;90.00;;;;;;5072548;28;20271;-64
2021/10/09 05:34:13;;;;;;;18.42;13.52;;;10.10;90.00;;;;;;5069026;28;20632;-68
2021/10/09 05:36:44;;;;;;;16.25;12.32;;;10.10;90.10;;;;;;5071163;28;20277;-65
2021/10/09 05:39:16;;;;;;;17.42;13.65;;;10.20;90.00;;;;;;5071153;28;20809;-63
2021/10/09 05:41:43;;;;;;;21.08;15.55;;;10.10;90.00;;;;;;5072171;28;20254;-64
2021/10/09 05:44:10;;;;;;;18.88;14.48;;;10.20;90.00;;;;;;5070664;28;20229;-64
2021/10/09 05:46:37;;;;;;;24.35;16.58;;;10.20;90.00;;;;;;5074551;28;20185;-64
2021/10/09 05:49:04;;;;;;;18.05;12.95;;;10.20;90.00;;;;;;5075172;28;20193;-63
2021/10/09 05:51:33;;;;;;;18.40;14.73;;;10.20;90.10;;;;;;5072727;28;20217;-66
2021/10/09 05:54:10;;;;;;;20.05;13.55;;;10.20;90.00;;;;;;5070419;28;20190;-63
2021/10/09 05:56:46;;;;;;;20.58;14.77;;;10.20;90.00;;;;;;5074806;28;20602;-63
2021/10/09 06:25:03;;;;;;;22.60;17.25;;;10.30;90.10;;;;;;5070860;28;20205;-63
2021/10/09 06:46:57;;;;;;;18.63;14.48;;;10.50;87.60;;;;;;5031691;28;20700;-64
2021/10/09 06:49:45;;;;;;;15.27;13.05;;;10.50;87.50;;;;;;5031633;28;20199;-64
2021/10/09 07:00:29;;;;;;;19.38;13.82;;;10.50;87.30;;;;;;5071704;28;20224;-63
2021/10/09 07:02:58;;;;;;;18.48;13.77;;;10.60;87.20;;;;;;5073383;28;20190;-65
2021/10/09 07:05:25;;;;;;;19.15;14.10;;;10.60;87.10;;;;;;5073886;28;20205;-63
2021/10/09 07:07:55;;;;;;;20.30;13.30;;;10.60;87.00;;;;;;5073322;28;20272;-64
2021/10/09 07:10:22;;;;;;;19.20;13.10;;;10.70;86.60;;;;;;5073741;28;20249;-63
2021/10/09 07:12:49;;;;;;;19.70;14.30;;;10.70;86.90;;;;;;5073240;28;20276;-66
2021/10/09 07:15:18;;;;;;;21.55;13.57;;;10.70;86.90;;;;;;5073126;28;20718;-64
2021/10/09 07:17:46;;;;;;;17.08;12.57;;;10.80;87.20;;;;;;5073764;28;20224;-64
2021/10/09 07:20:15;;;;;;;15.98;11.90;;;10.80;86.20;;;;;;5073512;28;20217;-64
2021/10/09 07:22:45;;;;;;;17.17;12.88;;;10.80;85.50;;;;;;5064935;28;20716;-64
2021/10/09 07:25:17;;;;;;;16.20;12.75;;;10.70;85.30;;;;;;5070164;28;20216;-64
2021/10/09 07:27:46;;;;;;;15.05;11.65;;;10.70;85.90;;;;;;5071541;28;20319;-65
2021/10/09 07:30:13;;;;;;;16.13;11.65;;;10.80;85.50;;;;;;5071401;28;20197;-64
2021/10/09 07:32:40;;;;;;;16.50;13.18;;;10.80;84.90;;;;;;5072114;28;20275;-64
2021/10/09 07:35:08;;;;;;;14.90;11.40;;;10.80;84.90;;;;;;5072132;28;20239;-64
2021/10/09 07:37:36;;;;;;;16.00;13.13;;;10.90;84.60;;;;;;5071226;28;20233;-64
2021/10/09 07:40:04;;;;;;;15.57;12.88;;;10.90;84.90;;;;;;5071585;28;20304;-64
2021/10/09 07:42:31;;;;;;;17.35;13.07;;;10.90;84.60;;;;;;5072160;28;20193;-64
2021/10/09 07:44:58;;;;;;;19.38;12.45;;;11.00;84.90;;;;;;5071404;28;20293;-64
2021/10/09 07:47:25;;;;;;;15.77;11.23;;;11.00;83.80;;;;;;5071367;28;20739;-64
2021/10/09 07:49:54;;;;;;;22.65;12.80;;;11.00;83.50;;;;;;5070556;28;20285;-64
2021/10/09 07:52:20;;;;;;;16.67;11.57;;;10.90;83.40;;;;;;5071070;28;20232;-64
2021/10/09 07:54:49;;;;;;;17.08;13.05;;;11.00;83.60;;;;;;5070673;28;20230;-65
2021/10/09 07:57:16;;;;;;;15.75;11.95;;;11.00;83.30;;;;;;5070653;28;20280;-65
2021/10/09 07:59:43;;;;;;;16.90;10.32;;;11.10;82.60;;;;;;5067919;28;20198;-64
2021/10/09 08:02:10;;;;;;;17.20;12.57;;;11.00;82.50;;;;;;5070221;28;20256;-65
2021/10/09 08:04:37;;;;;;;13.80;10.93;;;11.00;81.60;;;;;;5070439;28;20285;-66
2021/10/09 08:07:04;;;;;;;14.80;10.07;;;11.00;82.50;;;;;;5070227;28;20288;-64
2021/10/09 08:09:34;;;;;;;12.63;10.13;;;11.10;81.90;;;;;;5070173;28;20232;-65
2021/10/09 08:12:02;;;;;;;22.83;11.93;;;11.10;81.80;;;;;;5070270;28;20210;-64
2021/10/09 08:14:29;;;;;;;10.70;8.75;;;11.00;82.10;;;;;;5069761;28;20300;-64
2021/10/09 08:16:56;;;;;;;15.38;11.50;;;11.00;82.50;;;;;;5069528;28;20193;-64
2021/10/09 08:19:23;;;;;;;16.10;11.38;;;11.10;83.20;;;;;;5069813;28;20277;-64
2021/10/09 08:21:51;;;;;;;12.50;10.13;;;11.10;83.10;;;;;;5070151;28;20657;-64
2021/10/09 08:24:29;;;;;;;13.02;10.80;;;11.20;82.40;;;;;;5070460;28;20284;-64
2021/10/09 08:35:32;;;;;;;16.17;11.30;;;11.60;81.00;;;;;;5069142;28;20196;-64
2021/10/09 08:40:43;;;;;;;13.77;10.90;;;11.70;80.40;;;;;;5067852;28;20247;-65
2021/10/09 08:43:11;;;;;;;14.07;11.52;;;11.80;81.00;;;;;;5070162;28;20656;-65
2021/10/09 08:45:39;;;;;;;14.48;11.32;;;11.90;79.30;;;;;;5070139;28;20288;-64
2021/10/09 08:48:07;;;;;;;17.67;11.02;;;11.90;78.00;;;;;;5070017;28;20285;-64
2021/10/09 08:50:34;;;;;;;13.05;10.85;;;11.90;78.30;;;;;;5069303;28;20190;-64
2021/10/09 08:53:07;;;;;;;16.95;10.23;;;12.00;77.00;;;;;;5070045;28;20197;-65
2021/10/09 08:55:36;;;;;;;15.80;10.73;;;12.10;77.10;;;;;;5069827;28;20623;-64
2021/10/09 08:58:05;;;;;;;12.90;10.47;;;12.70;77.60;;;;;;5069208;28;20276;-64
2021/10/09 09:04:02;;;;;;;11.30;9.70;;;16.00;69.80;;;;;;5066463;28;20454;-65
2021/10/09 09:06:47;;;;;;;14.80;9.93;;;17.60;58.70;;;;;;5070067;28;20447;-65
2021/10/09 09:09:30;;;;;;;12.37;9.70;;;19.40;59.90;;;;;;5069247;28;20518;-65
2021/10/09 09:26:27;;;;;;;14.17;11.10;;;18.00;48.90;;;;;;5067606;28;20415;-64
2021/10/09 09:32:06;;;;;;;12.30;11.00;;;18.90;55.00;;;;;;5066983;28;20499;-66
2021/10/09 09:35:01;;;;;;;15.50;10.87;;;20.50;47.20;;;;;;5069357;28;20505;-65
2021/10/09 09:37:43;;;;;;;14.83;10.80;;;20.20;46.90;;;;;;5069710;28;20471;-65
2021/10/09 09:40:13;;;;;;;11.77;9.80;;;19.80;46.50;;;;;;5068758;28;20443;-65
2021/10/09 09:42:52;;;;;;;12.17;9.77;;;20.60;51.70;;;;;;5066154;28;20445;-67
2021/10/09 09:45:21;;;;;;;15.53;10.80;;;24.90;43.80;;;;;;5068242;28;20447;-65
2021/10/09 09:47:48;;;;;;;12.40;11.10;;;28.20;35.20;;;;;;5069678;28;20444;-66
2021/10/09 09:50:17;;;;;;;13.97;10.90;;;27.60;31.30;;;;;;5069059;28;20509;-65
2021/10/09 09:52:45;;;;;;;12.70;11.40;;;26.00;30.80;;;;;;5069568;28;20476;-66
2021/10/09 09:55:14;;;;;;;13.60;11.33;;;24.40;32.40;;;;;;5069118;28;20483;-65
2021/10/09 09:57:42;;;;;;;18.20;12.27;;;23.00;33.70;;;;;;5068996;28;20445;-64
2021/10/09 10:00:11;;;;;;;14.10;11.40;;;21.60;35.00;;;;;;5068588;28;21219;-64
2021/10/09 10:02:43;;;;;;;17.50;11.57;;;20.50;37.40;;;;;;5068311;28;20487;-64
2021/10/09 10:05:12;;;;;;;11.53;10.30;;;19.60;39.60;;;;;;5069012;28;20436;-64
2021/10/09 10:07:42;;;;;;;15.93;12.33;;;20.40;49.40;;;;;;5068143;28;20950;-65
2021/10/09 10:10:10;;;;;;;15.17;10.53;;;23.50;42.40;;;;;;5067779;28;20499;-66
2021/10/09 10:12:39;;;;;;;13.40;10.50;;;25.30;35.60;;;;;;5068545;28;20435;-65
2021/10/09 10:15:08;;;;;;;11.67;10.40;;;26.00;34.00;;;;;;5065992;28;20548;-65
2021/10/09 10:17:40;;;;;;;12.07;10.73;;;26.30;33.10;;;;;;5069955;28;20503;-65
2021/10/09 10:20:11;;;;;;;13.63;10.73;;;26.70;31.60;;;;;;5069823;28;20462;-66
2021/10/09 10:23:07;;;;;;;11.50;10.30;;;26.00;30.80;;;;;;5069927;28;20545;-64
2021/10/09 10:25:37;;;;;;;11.50;10.30;;;24.30;30.90;;;;;;5042853;28;20440;-65
2021/10/09 10:28:07;;;;;;;13.20;10.70;;;22.90;32.50;;;;;;5069988;28;20436;-66
2021/10/09 10:30:36;;;;;;;12.40;10.80;;;21.60;34.00;;;;;;5072805;28;20443;-68
2021/10/09 10:33:48;;;;;;;11.70;10.40;;;20.50;35.60;;;;;;5055573;28;20440;-64
2021/10/09 10:36:37;;;;;;;13.50;10.63;;;19.50;38.20;;;;;;5055720;28;20486;-64
2021/10/09 10:39:06;;;;;;;12.93;11.40;;;18.70;39.60;;;;;;5056124;28;20443;-64
2021/10/09 10:41:47;;;;;;;14.03;10.00;;;18.10;41.20;;;;;;5068482;28;20533;-65
2021/10/09 10:44:49;;;;;;;13.07;10.50;;;17.60;43.30;;;;;;5075198;28;20537;-64
2021/10/09 10:47:41;;;;;;;14.97;11.10;;;17.50;44.20;;;;;;5077547;28;20438;-64
2021/10/09 10:50:19;;;;;;;16.67;11.77;;;18.60;48.80;;;;;;5076408;28;20569;-65
2021/10/09 10:52:55;;;;;;;15.70;12.27;;;20.60;43.50;;;;;;5076265;28;20452;-64
2021/10/09 10:55:24;;;;;;;14.40;11.13;;;20.20;39.90;;;;;;5075832;28;20447;-64
2021/10/09 10:58:19;;;;;;;12.93;10.17;;;19.40;40.70;;;;;;5076124;28;20523;-64
2021/10/09 11:01:21;;;;;;;17.30;11.23;;;18.70;41.70;;;;;;5075519;28;20483;-64
2021/10/09 11:03:49;;;;;;;14.40;11.27;;;18.20;43.70;;;;;;5074851;28;20946;-64
2021/10/09 11:06:17;;;;;;;11.73;9.70;;;18.80;46.80;;;;;;5075713;28;20846;-64
2021/10/09 11:08:45;;;;;;;17.20;11.27;;;20.80;47.30;;;;;;5074617;28;20603;-65
2021/10/09 11:11:14;;;;;;;15.10;10.50;;;21.40;40.20;;;;;;5075178;28;20543;-64
2021/10/09 11:13:48;;;;;;;14.33;10.43;;;21.00;39.50;;;;;;5075296;28;20518;-64
2021/10/09 11:16:16;;;;;;;13.73;10.80;;;20.30;38.70;;;;;;5074999;28;20524;-64
2021/10/09 11:18:51;;;;;;;13.50;10.13;;;19.70;39.60;;;;;;5074711;28;20981;-65
2021/10/09 11:21:18;;;;;;;12.53;10.50;;;19.20;40.60;;;;;;5075125;28;20522;-65
2021/10/09 11:23:50;;;;;;;12.17;10.30;;;18.90;40.90;;;;;;5074888;28;20524;-65
2021/10/09 11:26:19;;;;;;;15.60;11.23;;;19.10;42.30;;;;;;5074873;28;20479;-64
2021/10/09 11:28:46;;;;;;;12.50;9.47;;;18.80;41.70;;;;;;5075068;28;20450;-63
2021/10/09 11:31:23;;;;;;;15.00;11.30;;;18.40;42.60;;;;;;5074928;28;20552;-64
2021/10/09 11:33:55;;;;;;;15.30;11.47;;;18.10;43.30;;;;;;5074913;28;20780;-64
2021/10/09 11:36:22;;;;;;;13.90;10.47;;;17.70;44.30;;;;;;5074450;28;20475;-64
2021/10/09 11:39:00;;;;;;;15.50;10.50;;;17.50;45.30;;;;;;5074168;28;20518;-64
2021/10/09 11:41:28;;;;;;;17.17;10.80;;;17.20;45.70;;;;;;5074530;28;20471;-64
2021/10/09 11:44:00;;;;;;;14.10;10.03;;;17.10;46.30;;;;;;5074425;28;20471;-64
2021/10/09 11:55:16;;;;;;;12.73;9.90;;;16.60;48.00;;;;;;5031982;28;20426;-64
2021/10/09 11:57:45;;;;;;;15.30;11.70;;;16.60;47.30;;;;;;5064218;28;20428;-64
2021/10/09 12:00:37;;;;;;;14.87;9.10;;;17.50;49.20;;;;;;5074119;28;20539;-65
2021/10/09 12:03:28;;;;;;;12.53;9.60;;;22.00;47.40;;;;;;5074159;28;20542;-64
2021/10/09 12:05:57;;;;;;;10.67;9.47;;;26.70;36.00;;;;;;5073687;28;20436;-66
2021/10/09 12:08:25;;;;;;;13.60;9.60;;;29.70;30.00;;;;;;5073518;28;20555;-65
2021/10/09 12:11:14;;;;;;;13.23;10.30;;;31.70;25.50;;;;;;5073929;28;20455;-65
2021/10/09 12:13:53;;;;;;;11.90;10.30;;;33.20;23.50;;;;;;5073874;28;20432;-66
2021/10/09 12:16:28;;;;;;;11.80;10.60;;;34.40;22.40;;;;;;5073558;28;20445;-66
2021/10/09 12:19:02;;;;;;;12.63;11.33;;;35.50;21.00;;;;;;5073573;28;20455;-65
2021/10/09 12:21:31;;;;;;;12.97;11.07;;;36.20;20.80;;;;;;5073568;28;20903;-66
2021/10/09 12:23:59;;;;;;;11.20;10.07;;;36.80;19.20;;;;;;5073571;28;20531;-65
2021/10/09 12:26:27;;;;;;;12.13;10.80;;;37.30;18.70;;;;;;5073625;28;20482;-66
2021/10/09 12:29:09;;;;;;;11.50;10.30;;;37.60;18.60;;;;;;5073298;28;20526;-65
2021/10/09 12:31:38;;;;;;;11.53;10.30;;;37.90;17.70;;;;;;5073440;28;20451;-65
2021/10/09 12:34:24;;;;;;;11.43;10.33;;;37.70;19.40;;;;;;5073348;28;20527;-65
2021/10/09 12:37:27;;;;;;;11.07;9.97;;;36.80;17.20;;;;;;5073239;28;20942;-65
2021/10/09 12:40:10;;;;;;;10.13;8.90;;;33.80;17.20;;;;;;5072654;28;20872;-64
2021/10/09 12:42:37;;;;;;;11.93;10.53;;;30.90;19.50;;;;;;5073469;28;20555;-64
2021/10/09 12:45:06;;;;;;;10.67;9.53;;;29.10;21.90;;;;;;5073217;28;20525;-65
2021/10/09 12:47:33;;;;;;;11.07;9.17;;;28.10;23.10;;;;;;5073040;28;20880;-64
2021/10/09 12:50:00;;;;;;;13.03;9.00;;;27.50;23.70;;;;;;5073011;28;20468;-64
2021/10/09 12:52:27;;;;;;;10.13;9.03;;;27.50;24.10;;;;;;5072853;28;20514;-64
2021/10/09 12:54:55;;;;;;;12.73;9.10;;;27.40;24.90;;;;;;5073228;28;20436;-65
2021/10/09 12:57:25;;;;;;;10.07;9.07;;;27.40;25.40;;;;;;5073172;28;20490;-64
2021/10/09 12:59:52;;;;;;;12.00;9.30;;;27.60;25.20;;;;;;5072877;28;20527;-64
2021/10/09 13:02:21;;;;;;;14.40;9.60;;;27.60;24.70;;;;;;5073102;28;20906;-65
2021/10/09 13:04:48;;;;;;;10.50;9.40;;;27.50;25.30;;;;;;5072940;28;20523;-65
2021/10/09 13:07:24;;;;;;;10.50;8.87;;;27.60;26.10;;;;;;5072996;28;20474;-65
2021/10/09 13:09:56;;;;;;;12.47;8.93;;;27.30;25.60;;;;;;5072822;28;20489;-65
2021/10/09 13:12:23;;;;;;;9.77;8.63;;;26.60;25.70;;;;;;5072676;28;20446;-64
2021/10/09 13:14:50;;;;;;;13.37;9.10;;;25.70;26.80;;;;;;5072986;28;20486;-65
2021/10/09 13:17:16;;;;;;;11.33;9.40;;;24.90;27.80;;;;;;5073110;28;20546;-64
2021/10/09 13:19:45;;;;;;;11.10;8.37;;;24.20;28.00;;;;;;5073279;28;20519;-64
2021/10/09 13:22:12;;;;;;;9.90;8.30;;;23.60;29.00;;;;;;5072669;28;20563;-64
2021/10/09 13:24:39;;;;;;;13.30;8.60;;;23.10;28.40;;;;;;5072914;28;20529;-64
2021/10/09 13:27:06;;;;;;;12.90;8.60;;;22.40;28.90;;;;;;5072954;28;20823;-63
2021/10/09 13:29:33;;;;;;;12.07;8.20;;;21.80;29.50;;;;;;5072638;28;20527;-64
2021/10/09 13:32:00;;;;;;;11.60;8.57;;;21.00;30.30;;;;;;5072928;28;20472;-64
2021/10/09 13:34:27;;;;;;;10.03;8.17;;;20.50;32.80;;;;;;5072828;28;20528;-68
2021/10/09 13:36:55;;;;;;;11.27;8.23;;;20.10;33.80;;;;;;5072869;28;20436;-64
2021/10/09 13:39:25;;;;;;;9.10;7.57;;;19.80;34.70;;;;;;5072545;28;20523;-63
2021/10/09 13:41:52;;;;;;;9.80;8.23;;;19.50;35.80;;;;;;5072873;28;20563;-64
2021/10/09 13:44:24;;;;;;;11.97;7.40;;;19.10;35.10;;;;;;5072561;28;20836;-64
2021/10/09 13:46:51;;;;;;;8.70;7.50;;;18.70;35.50;;;;;;5072452;28;20983;-63
2021/10/09 13:49:18;;;;;;;10.80;7.43;;;18.40;36.90;;;;;;5072998;28;20527;-63
2021/10/09 13:51:45;;;;;;;9.03;6.80;;;18.10;37.00;;;;;;5072550;28;20531;-64
2021/10/09 13:54:14;;;;;;;11.13;7.57;;;17.70;36.80;;;;;;5072765;28;20522;-64
2021/10/09 13:56:41;;;;;;;10.63;7.67;;;17.50;37.80;;;;;;5072337;28;20519;-64
2021/10/09 13:59:13;;;;;;;8.37;6.93;;;17.30;38.90;;;;;;5072406;28;20464;-63
2021/10/09 14:01:40;;;;;;;12.30;7.00;;;17.10;38.80;;;;;;5072732;28;20440;-63
2021/10/09 14:04:08;;;;;;;11.70;8.50;;;17.00;40.00;;;;;;5076378;28;20471;-64
2021/10/09 14:06:36;;;;;;;11.67;7.70;;;16.80;40.70;;;;;;5076340;28;20435;-63
2021/10/09 14:09:04;;;;;;;11.37;8.23;;;16.50;40.80;;;;;;5076155;28;20471;-65
2021/10/09 14:11:32;;;;;;;10.60;7.97;;;16.40;41.20;;;;;;5076386;28;20475;-63
2021/10/09 14:14:00;;;;;;;12.00;8.07;;;16.20;41.70;;;;;;5076307;28;20518;-64
2021/10/09 14:16:26;;;;;;;9.83;8.00;;;16.10;42.30;;;;;;5075661;28;20466;-63
2021/10/09 14:18:54;;;;;;;9.43;7.20;;;15.90;43.10;;;;;;5076264;28;20523;-64
2021/10/09 14:21:21;;;;;;;9.33;8.27;;;15.90;43.90;;;;;;5076123;28;20468;-63
2021/10/09 14:23:48;;;;;;;13.20;8.33;;;15.80;44.10;;;;;;5075385;28;20491;-64